createdAt,value
2024-01-25T00:00:29.601Z,77214.97
2024-01-25T00:02:57.972Z,77225.19
2024-01-25T00:05:27.957Z,77219.06
2024-01-25T00:07:56.877Z,77231.31
2024-01-25T00:10:25.473Z,77237.41
2024-01-25T00:12:55.740Z,77239.47
2024-01-25T00:15:24.191Z,77249.66
2024-01-25T00:17:54.593Z,77247.63
2024-01-25T00:20:23.388Z,77251.72
2024-01-25T00:22:53.306Z,77255.78
2024-01-25T00:25:21.784Z,77259.88
2024-01-25T00:27:50.282Z,77266.00
2024-01-25T00:30:18.868Z,77272.13
2024-01-25T00:32:47.384Z,77274.16
2024-01-25T00:35:17.369Z,77282.31
2024-01-25T00:37:46.543Z,77296.59
2024-01-25T00:40:17.122Z,77298.66
2024-01-25T00:42:54.746Z,77300.69
2024-01-25T00:45:25.529Z,77310.88
2024-01-25T00:47:55.063Z,77317.00
2024-01-25T00:50:25.808Z,77319.06
2024-01-25T00:52:55.180Z,77327.22
2024-01-25T00:55:25.978Z,77327.22
2024-01-25T00:57:56.015Z,77333.34
2024-01-25T01:00:25.620Z,77339.47
2024-01-25T01:02:56.667Z,77343.53
2024-01-25T01:05:29.163Z,77355.78
2024-01-25T01:07:58.695Z,77355.78
2024-01-25T01:10:29.831Z,77366.00
2024-01-25T01:12:58.191Z,77374.16
2024-01-25T01:15:26.646Z,77382.31
2024-01-25T01:17:55.262Z,77384.34
2024-01-25T01:20:24.202Z,77386.41
2024-01-25T01:22:54.711Z,77396.59
2024-01-25T01:25:23.292Z,77394.56
2024-01-25T01:27:53.331Z,77398.63
2024-01-25T01:30:22.135Z,77408.84
2024-01-25T01:32:50.680Z,77406.81
2024-01-25T01:35:20.132Z,77412.94
2024-01-25T01:37:48.682Z,77414.97
2024-01-25T01:40:17.453Z,77410.88
2024-01-25T01:42:45.983Z,77421.09
2024-01-25T01:45:15.920Z,77427.22
2024-01-25T01:47:45.691Z,77429.25
2024-01-25T01:50:18.381Z,77437.41
2024-01-25T01:52:47.961Z,77443.53
2024-01-25T01:55:16.587Z,77449.66
2024-01-25T01:57:45.234Z,77457.81
2024-01-25T02:00:22.263Z,77459.88
2024-01-25T02:02:50.706Z,77461.91
2024-01-25T02:05:19.051Z,77465.97
2024-01-25T02:07:47.487Z,77465.97
2024-01-25T02:10:15.979Z,77465.97
2024-01-25T02:12:45.286Z,77476.19
2024-01-25T02:15:14.226Z,77478.22
2024-01-25T02:17:44.439Z,77478.22
2024-01-25T02:20:15.414Z,77476.19
2024-01-25T02:22:45.163Z,77482.31
2024-01-25T02:25:16.840Z,77482.31
2024-01-25T02:27:47.290Z,77490.47
2024-01-25T02:30:16.111Z,77498.63
2024-01-25T02:32:45.547Z,77504.75
2024-01-25T02:35:14.193Z,77510.88
2024-01-25T02:37:42.636Z,77514.97
2024-01-25T02:40:14.336Z,77523.13
2024-01-25T02:42:42.755Z,77531.28
2024-01-25T02:45:14.085Z,77529.25
2024-01-25T02:47:43.772Z,77541.50
2024-01-25T02:50:12.468Z,77545.56
2024-01-25T02:52:41.239Z,77555.78
2024-01-25T02:55:12.065Z,77555.78
2024-01-25T02:57:40.482Z,77563.94
2024-01-25T03:00:10.816Z,77570.06
2024-01-25T03:02:40.573Z,77588.44
2024-01-25T03:05:09.550Z,77588.44
2024-01-25T03:07:38.077Z,77600.69
2024-01-25T03:10:07.558Z,77606.81
2024-01-25T03:12:37.450Z,77606.81
2024-01-25T03:15:07.760Z,77623.13
2024-01-25T03:17:36.363Z,77621.09
2024-01-25T03:20:04.976Z,77623.13
2024-01-25T03:22:35.833Z,77627.22
2024-01-25T03:25:04.456Z,77635.38
2024-01-25T03:27:33.481Z,77637.41
2024-01-25T03:30:03.480Z,77637.41
2024-01-25T03:32:32.700Z,77643.53
2024-01-25T03:35:01.529Z,77649.66
2024-01-25T03:37:30.146Z,77661.91
2024-01-25T03:39:58.532Z,77672.09
2024-01-25T03:42:26.941Z,77672.09
2024-01-25T03:44:55.396Z,77688.44
2024-01-25T03:47:25.780Z,77694.56
2024-01-25T03:49:54.426Z,77690.47
2024-01-25T03:52:23.230Z,77698.63
2024-01-25T03:54:51.855Z,77708.84
2024-01-25T03:57:20.479Z,77717.00
2024-01-25T03:59:51.973Z,77727.22
2024-01-25T04:02:20.841Z,77731.28
2024-01-25T04:04:51.406Z,77733.34
2024-01-25T04:07:22.892Z,77735.38
2024-01-25T04:09:51.941Z,77741.50
2024-01-25T04:12:20.537Z,77745.59
2024-01-25T04:14:49.329Z,77751.72
2024-01-25T04:17:17.605Z,77768.03
2024-01-25T04:19:45.993Z,77778.25
2024-01-25T04:22:15.819Z,77790.47
2024-01-25T04:24:45.155Z,77788.44
2024-01-25T04:27:13.576Z,77798.66
2024-01-25T04:29:43.465Z,77806.81
2024-01-25T04:32:12.015Z,77804.78
2024-01-25T04:34:40.430Z,77817.00
2024-01-25T04:37:08.989Z,77804.78
2024-01-25T04:39:38.811Z,77804.78
2024-01-25T04:42:07.511Z,77808.84
2024-01-25T04:44:37.714Z,77821.09
2024-01-25T04:47:07.757Z,77825.19
2024-01-25T04:49:36.229Z,77837.44
2024-01-25T04:52:05.126Z,77835.38
2024-01-25T04:54:33.489Z,77833.34
2024-01-25T04:57:07.606Z,77837.44
2024-01-25T04:59:38.683Z,77833.34
2024-01-25T05:02:07.350Z,77837.44
2024-01-25T05:04:37.232Z,77845.59
2024-01-25T05:07:05.998Z,77851.72
2024-01-25T05:09:34.376Z,77845.59
2024-01-25T05:12:04.298Z,77853.75
2024-01-25T05:14:32.693Z,77861.91
2024-01-25T05:17:01.026Z,77878.25
2024-01-25T05:19:29.582Z,77882.31
2024-01-25T05:21:58.226Z,77892.53
2024-01-25T05:24:26.952Z,77882.31
2024-01-25T05:26:55.431Z,77886.41
2024-01-25T05:29:25.827Z,77886.41
2024-01-25T05:31:54.294Z,77882.31
2024-01-25T05:34:23.159Z,77886.41
2024-01-25T05:36:51.793Z,77884.38
2024-01-25T05:39:20.172Z,77886.41
2024-01-25T05:41:48.638Z,77892.53
2024-01-25T05:44:17.970Z,77898.66
2024-01-25T05:46:48.931Z,77906.81
2024-01-25T05:49:18.026Z,77917.03
2024-01-25T05:51:46.556Z,77917.03
2024-01-25T05:54:15.519Z,77921.09
2024-01-25T05:56:43.904Z,77927.22
2024-01-25T05:59:12.332Z,77929.28
2024-01-25T06:01:40.814Z,77935.41
2024-01-25T06:04:11.212Z,77943.56
2024-01-25T06:06:40.071Z,77947.66
2024-01-25T06:09:13.041Z,77953.75
2024-01-25T06:11:42.592Z,77966.00
2024-01-25T06:14:11.307Z,77974.19
2024-01-25T06:16:40.507Z,77984.38
2024-01-25T06:19:12.609Z,77980.31
2024-01-25T06:21:41.145Z,77978.25
2024-01-25T06:24:09.703Z,77986.41
2024-01-25T06:26:38.128Z,77990.50
2024-01-25T06:29:06.676Z,77992.53
2024-01-25T06:31:35.246Z,77998.66
2024-01-25T06:34:07.190Z,78010.91
2024-01-25T06:36:37.126Z,78019.06
2024-01-25T06:39:06.433Z,78025.19
2024-01-25T06:41:34.901Z,78025.19
2024-01-25T06:44:04.048Z,78033.38
2024-01-25T06:46:32.656Z,78037.44
2024-01-25T06:49:01.858Z,78043.56
2024-01-25T06:51:30.690Z,78049.69
2024-01-25T06:54:01.027Z,78051.72
2024-01-25T06:56:29.537Z,78041.53
2024-01-25T06:58:57.842Z,78047.66
2024-01-25T07:01:28.255Z,78055.81
2024-01-25T07:03:57.110Z,78055.81
2024-01-25T07:06:27.743Z,78059.91
2024-01-25T07:08:56.452Z,78061.94
2024-01-25T07:11:26.405Z,78061.94
2024-01-25T07:13:54.772Z,78070.09
2024-01-25T07:16:25.150Z,78082.34
2024-01-25T07:18:53.881Z,78096.63
2024-01-25T07:21:22.299Z,78127.25
2024-01-25T07:23:50.721Z,78135.41
2024-01-25T07:26:20.361Z,78139.50
2024-01-25T07:28:50.248Z,78147.66
2024-01-25T07:31:19.383Z,78151.75
2024-01-25T07:33:47.930Z,78151.75
2024-01-25T07:36:24.795Z,78147.66
2024-01-25T07:38:54.340Z,78153.78
2024-01-25T07:41:22.699Z,78149.72
2024-01-25T07:43:56.590Z,78153.78
2024-01-25T07:46:26.465Z,78157.88
2024-01-25T07:48:55.080Z,78172.16
2024-01-25T07:51:31.805Z,78172.16
2024-01-25T07:54:00.248Z,78168.09
2024-01-25T07:56:28.929Z,78170.13
2024-01-25T07:59:01.388Z,78174.19
2024-01-25T08:01:30.297Z,78186.44
2024-01-25T08:03:59.732Z,78180.31
2024-01-25T08:06:31.677Z,78196.66
2024-01-25T08:09:00.777Z,78196.66
2024-01-25T08:11:31.351Z,78202.78
2024-01-25T08:14:01.398Z,78212.97
2024-01-25T08:16:30.041Z,78217.06
2024-01-25T08:19:00.089Z,78217.06
2024-01-25T08:21:34.041Z,78227.28
2024-01-25T08:24:02.420Z,78229.31
2024-01-25T08:26:31.054Z,78225.22
2024-01-25T08:29:00.898Z,78223.19
2024-01-25T08:31:29.711Z,78217.06
2024-01-25T08:34:00.571Z,78221.16
2024-01-25T08:36:29.058Z,78219.09
2024-01-25T08:38:57.389Z,78225.22
2024-01-25T08:41:25.970Z,78225.22
2024-01-25T08:43:54.895Z,78235.44
2024-01-25T08:46:25.570Z,78243.59
2024-01-25T08:48:54.427Z,78257.91
2024-01-25T08:51:22.864Z,78259.94
2024-01-25T08:53:54.191Z,78266.06
2024-01-25T08:56:22.567Z,78268.09
2024-01-25T08:58:51.626Z,78270.13
2024-01-25T09:01:20.098Z,78274.22
2024-01-25T09:03:50.126Z,78274.22
2024-01-25T09:06:19.616Z,78274.22
2024-01-25T09:08:48.529Z,78282.38
2024-01-25T09:11:17.254Z,78284.44
2024-01-25T09:13:47.212Z,78274.22
2024-01-25T09:16:15.761Z,78270.13
2024-01-25T09:18:48.108Z,78274.22
2024-01-25T09:21:18.056Z,78268.09
2024-01-25T09:23:46.372Z,78261.97
2024-01-25T09:26:14.862Z,78257.91
2024-01-25T09:28:43.630Z,78261.97
2024-01-25T09:31:15.204Z,78264.00
2024-01-25T09:33:44.389Z,78272.19
2024-01-25T09:36:12.944Z,78278.31
2024-01-25T09:38:42.730Z,78278.31
2024-01-25T09:41:14.121Z,78278.31
2024-01-25T09:43:42.901Z,78282.38
2024-01-25T09:46:16.770Z,78288.50
2024-01-25T09:48:48.011Z,78296.69
2024-01-25T09:51:17.115Z,78298.72
2024-01-25T09:53:51.728Z,78294.63
2024-01-25T09:56:24.436Z,78300.75
2024-01-25T09:58:59.402Z,78306.88
2024-01-25T10:01:27.999Z,78313.00
2024-01-25T10:03:57.940Z,78315.03
2024-01-25T10:06:26.579Z,78310.97
2024-01-25T10:08:57.282Z,78300.75
2024-01-25T10:11:27.189Z,78310.97
2024-01-25T10:13:58.066Z,78315.03
2024-01-25T10:16:26.507Z,78308.94
2024-01-25T10:18:55.119Z,78315.03
2024-01-25T10:21:24.108Z,78317.09
2024-01-25T10:23:59.919Z,78315.03
2024-01-25T10:26:30.777Z,78323.22
2024-01-25T10:29:02.564Z,78325.25
2024-01-25T10:31:33.359Z,78335.47
2024-01-25T10:34:03.653Z,78339.53
2024-01-25T10:36:33.059Z,78349.75
2024-01-25T10:39:03.645Z,78343.63
2024-01-25T10:41:35.084Z,78347.72
2024-01-25T10:44:04.462Z,78349.75
2024-01-25T10:46:35.068Z,78349.75
2024-01-25T10:49:04.555Z,78353.84
2024-01-25T10:51:34.028Z,78359.94
2024-01-25T10:54:03.897Z,78364.03
2024-01-25T10:56:34.073Z,78364.03
2024-01-25T10:59:02.540Z,78364.03
2024-01-25T11:01:31.133Z,78359.94
2024-01-25T11:04:00.059Z,78357.91
2024-01-25T11:06:30.781Z,78359.94
2024-01-25T11:09:07.186Z,78359.94
2024-01-25T11:11:38.427Z,78368.13
2024-01-25T11:14:08.240Z,78359.94
2024-01-25T11:16:43.564Z,78366.06
2024-01-25T11:19:21.010Z,78386.50
2024-01-25T11:21:51.172Z,78384.44
2024-01-25T11:24:22.936Z,78384.44
2024-01-25T11:26:52.922Z,78386.50
2024-01-25T11:29:23.864Z,78392.63
2024-01-25T11:31:54.634Z,78404.88
2024-01-25T11:34:23.470Z,78417.09
2024-01-25T11:36:54.657Z,78425.28
2024-01-25T11:39:23.142Z,78429.34
2024-01-25T11:41:54.848Z,78433.44
2024-01-25T11:44:26.286Z,78439.56
2024-01-25T11:46:57.734Z,78435.47
2024-01-25T11:49:27.142Z,78425.28
2024-01-25T11:51:55.724Z,78421.19
2024-01-25T11:54:24.266Z,78427.31
2024-01-25T11:56:57.152Z,78443.66
2024-01-25T11:59:30.751Z,78451.81
2024-01-25T12:01:59.567Z,78462.00
2024-01-25T12:04:29.014Z,78459.97
2024-01-25T12:06:59.246Z,78464.06
2024-01-25T12:09:27.890Z,78466.09
2024-01-25T12:11:59.023Z,78470.19
2024-01-25T12:14:27.295Z,78480.38
2024-01-25T12:17:01.968Z,78484.47
2024-01-25T12:19:31.456Z,78482.44
2024-01-25T12:22:00.198Z,78486.50
2024-01-25T12:24:28.713Z,78488.56
2024-01-25T12:26:58.974Z,78486.50
2024-01-25T12:29:29.826Z,78482.44
2024-01-25T12:32:00.360Z,78494.69
2024-01-25T12:34:32.180Z,78500.81
2024-01-25T12:37:02.255Z,78511.00
2024-01-25T12:39:30.834Z,78517.13
2024-01-25T12:42:00.706Z,78517.13
2024-01-25T12:44:37.119Z,78515.09
2024-01-25T12:47:07.883Z,78519.19
2024-01-25T12:49:36.330Z,78511.00
2024-01-25T12:52:05.080Z,78517.13
2024-01-25T12:54:36.730Z,78519.19
2024-01-25T12:57:07.527Z,78517.13
2024-01-25T12:59:37.498Z,78515.09
2024-01-25T13:02:06.759Z,78508.97
2024-01-25T13:04:35.302Z,78498.75
2024-01-25T13:07:03.894Z,78496.72
2024-01-25T13:09:34.892Z,78506.94
2024-01-25T13:12:03.530Z,78515.09
2024-01-25T13:14:33.680Z,78517.13
2024-01-25T13:17:01.998Z,78521.22
2024-01-25T13:19:30.905Z,78527.34
2024-01-25T13:21:59.304Z,78537.53
2024-01-25T13:24:27.774Z,78545.72
2024-01-25T13:26:56.110Z,78553.88
2024-01-25T13:29:24.567Z,78576.34
2024-01-25T13:31:54.934Z,78588.59
2024-01-25T13:34:26.121Z,78588.59
2024-01-25T13:36:59.110Z,78600.84
2024-01-25T13:39:28.068Z,78609.00
2024-01-25T13:41:57.565Z,78613.06
2024-01-25T13:44:29.608Z,78629.41
2024-01-25T13:47:00.544Z,78641.66
2024-01-25T13:49:29.126Z,78643.69
2024-01-25T13:51:57.865Z,78651.88
2024-01-25T13:54:26.441Z,78658.00
2024-01-25T13:56:56.679Z,78655.94
2024-01-25T13:59:28.374Z,78655.94
2024-01-25T14:01:57.260Z,78660.03
2024-01-25T14:04:29.455Z,78674.31
2024-01-25T14:06:58.203Z,78676.38
2024-01-25T14:09:29.403Z,78666.16
2024-01-25T14:11:57.987Z,78678.41
2024-01-25T14:14:26.459Z,78678.41
2024-01-25T14:16:55.192Z,78670.25
2024-01-25T14:19:24.236Z,78670.25
2024-01-25T14:22:04.891Z,78670.25
2024-01-25T14:24:42.655Z,78666.16
2024-01-25T14:27:11.355Z,78668.19
2024-01-25T14:29:39.935Z,78674.31
2024-01-25T14:32:08.842Z,78676.38
2024-01-25T14:34:37.640Z,78672.28
2024-01-25T14:37:07.539Z,78674.31
2024-01-25T14:39:41.125Z,78668.19
2024-01-25T14:42:13.352Z,78676.38
2024-01-25T14:44:45.960Z,78676.38
2024-01-25T14:47:15.257Z,78682.47
2024-01-25T14:49:43.921Z,78690.66
2024-01-25T14:52:15.050Z,78682.47
2024-01-25T14:54:45.778Z,78686.56
2024-01-25T14:57:14.505Z,78694.72
2024-01-25T14:59:44.258Z,78702.91
2024-01-25T15:02:12.534Z,78706.97
2024-01-25T15:04:43.433Z,78704.94
2024-01-25T15:07:16.326Z,78717.19
2024-01-25T15:09:44.839Z,78713.09
2024-01-25T15:12:13.360Z,78717.19
2024-01-25T15:14:41.657Z,78715.16
2024-01-25T15:17:10.094Z,78711.06
2024-01-25T15:19:39.288Z,78709.03
2024-01-25T15:22:07.953Z,78723.31
2024-01-25T15:24:38.061Z,78739.66
2024-01-25T15:27:07.549Z,78743.72
2024-01-25T15:29:35.848Z,78743.72
2024-01-25T15:32:04.294Z,78745.78
2024-01-25T15:34:32.823Z,78743.72
2024-01-25T15:37:01.266Z,78737.59
2024-01-25T15:39:29.895Z,78741.69
2024-01-25T15:42:00.165Z,78739.66
2024-01-25T15:44:28.770Z,78739.66
2024-01-25T15:46:57.265Z,78741.69
2024-01-25T15:49:25.635Z,78737.59
2024-01-25T15:51:54.167Z,78737.59
2024-01-25T15:54:22.943Z,78737.59
2024-01-25T15:56:53.019Z,78735.56
2024-01-25T15:59:22.806Z,78735.56
2024-01-25T16:01:51.304Z,78739.66
2024-01-25T16:04:20.200Z,78741.69
2024-01-25T16:06:48.553Z,78739.66
2024-01-25T16:09:25.612Z,78733.53
2024-01-25T16:11:54.003Z,78733.53
2024-01-25T16:14:24.037Z,78733.53
2024-01-25T16:16:52.546Z,78735.56
2024-01-25T16:19:20.967Z,78737.59
2024-01-25T16:21:49.289Z,78733.53
2024-01-25T16:24:19.792Z,78735.56
2024-01-25T16:26:49.202Z,78743.72
2024-01-25T16:29:17.823Z,78747.81
2024-01-25T16:31:50.026Z,78749.84
2024-01-25T16:34:18.479Z,78749.84
2024-01-25T16:36:47.057Z,78758.03
2024-01-25T16:39:17.191Z,78760.06
2024-01-25T16:41:45.625Z,78766.19
2024-01-25T16:44:14.904Z,78764.16
2024-01-25T16:46:46.510Z,78760.06
2024-01-25T16:49:16.472Z,78764.16
2024-01-25T16:51:44.989Z,78768.22
2024-01-25T16:54:14.281Z,78770.25
2024-01-25T16:56:49.110Z,78764.16
2024-01-25T16:59:17.830Z,78762.09
2024-01-25T17:01:46.329Z,78762.09
2024-01-25T17:04:16.833Z,78766.19
2024-01-25T17:06:46.236Z,78760.06
2024-01-25T17:09:15.861Z,78755.97
2024-01-25T17:11:45.242Z,78762.09
2024-01-25T17:14:13.779Z,78770.25
2024-01-25T17:16:42.345Z,78772.31
2024-01-25T17:19:11.034Z,78778.44
2024-01-25T17:21:40.980Z,78790.69
2024-01-25T17:24:10.332Z,78800.88
2024-01-25T17:26:43.475Z,78809.06
2024-01-25T17:29:11.870Z,78823.34
2024-01-25T17:31:40.284Z,78823.34
2024-01-25T17:34:09.938Z,78823.34
2024-01-25T17:36:40.746Z,78821.31
2024-01-25T17:39:12.243Z,78819.25
2024-01-25T17:41:40.900Z,78823.34
2024-01-25T17:44:13.057Z,78829.47
2024-01-25T17:46:41.707Z,78847.84
2024-01-25T17:49:10.338Z,78849.88
2024-01-25T17:51:40.716Z,78835.59
2024-01-25T17:54:14.793Z,78837.63
2024-01-25T17:56:43.120Z,78839.69
2024-01-25T17:59:11.712Z,78839.69
2024-01-25T18:01:40.122Z,78837.63
2024-01-25T18:04:08.721Z,78843.75
2024-01-25T18:06:37.214Z,78858.06
2024-01-25T18:09:09.802Z,78858.06
2024-01-25T18:11:38.278Z,78851.94
2024-01-25T18:14:06.613Z,78853.97
2024-01-25T18:16:35.072Z,78847.84
2024-01-25T18:19:03.760Z,78841.72
2024-01-25T18:21:32.339Z,78839.69
2024-01-25T18:24:02.318Z,78845.81
2024-01-25T18:26:32.411Z,78856.00
2024-01-25T18:29:00.766Z,78858.06
2024-01-25T18:31:29.536Z,78858.06
2024-01-25T18:33:58.209Z,78858.06
2024-01-25T18:36:26.622Z,78862.13
2024-01-25T18:38:54.925Z,78862.13
2024-01-25T18:41:23.628Z,78868.25
2024-01-25T18:43:53.626Z,78870.31
2024-01-25T18:46:22.174Z,78864.19
2024-01-25T18:48:53.991Z,78874.38
2024-01-25T18:51:22.712Z,78882.56
2024-01-25T18:53:51.820Z,78880.50
2024-01-25T18:56:27.208Z,78886.63
2024-01-25T18:58:58.714Z,78890.72
2024-01-25T19:01:27.735Z,78890.72
2024-01-25T19:03:56.810Z,78902.97
2024-01-25T19:06:30.754Z,78900.91
2024-01-25T19:09:04.699Z,78907.03
2024-01-25T19:11:33.375Z,78898.88
2024-01-25T19:14:03.425Z,78900.91
2024-01-25T19:16:31.660Z,78907.03
2024-01-25T19:18:59.977Z,78915.22
2024-01-25T19:21:28.527Z,78913.16
2024-01-25T19:23:57.256Z,78915.22
2024-01-25T19:26:25.592Z,78915.22
2024-01-25T19:28:54.165Z,78927.47
2024-01-25T19:31:23.977Z,78935.63
2024-01-25T19:33:52.609Z,78941.75
2024-01-25T19:36:21.243Z,78947.88
2024-01-25T19:38:49.565Z,78949.91
2024-01-25T19:41:17.983Z,78943.78
2024-01-25T19:43:46.398Z,78939.72
2024-01-25T19:46:15.272Z,78945.84
2024-01-25T19:48:45.738Z,78947.88
2024-01-25T19:51:14.595Z,78937.66
2024-01-25T19:53:43.041Z,78937.66
2024-01-25T19:56:11.537Z,78937.66
2024-01-25T19:59:03.796Z,78943.78
2024-01-25T20:01:32.852Z,78943.78
2024-01-25T20:04:03.824Z,78935.63
2024-01-25T20:06:33.769Z,78929.50
2024-01-25T20:09:02.267Z,78933.59
2024-01-25T20:11:30.658Z,78929.50
2024-01-25T20:13:58.979Z,78927.47
2024-01-25T20:16:27.611Z,78923.38
2024-01-25T20:18:56.262Z,78923.38
2024-01-25T20:21:26.354Z,78935.63
2024-01-25T20:23:54.845Z,78937.66
2024-01-25T20:26:23.984Z,78951.97
2024-01-25T20:28:52.765Z,78949.91
2024-01-25T20:31:21.694Z,78949.91
2024-01-25T20:33:51.958Z,78949.91
2024-01-25T20:36:20.561Z,78943.78
2024-01-25T20:38:50.453Z,78943.78
2024-01-25T20:41:19.287Z,78941.75
2024-01-25T20:43:49.062Z,78937.66
2024-01-25T20:46:19.961Z,78935.63
2024-01-25T20:48:48.577Z,78931.53
2024-01-25T20:51:17.154Z,78927.47
2024-01-25T20:53:53.857Z,78917.25
2024-01-25T20:56:30.910Z,78925.41
2024-01-25T20:58:59.344Z,78933.59
2024-01-25T21:01:28.209Z,78933.59
2024-01-25T21:03:57.609Z,78943.78
2024-01-25T21:06:28.157Z,78947.88
2024-01-25T21:08:57.365Z,78943.78
2024-01-25T21:11:26.352Z,78933.59
2024-01-25T21:13:59.700Z,78937.66
2024-01-25T21:16:28.211Z,78933.59
2024-01-25T21:18:57.840Z,78937.66
2024-01-25T21:21:26.381Z,78945.84
2024-01-25T21:23:54.795Z,78960.13
2024-01-25T21:26:23.194Z,78970.34
2024-01-25T21:28:51.429Z,78974.41
2024-01-25T21:31:24.596Z,78964.22
2024-01-25T21:33:54.774Z,78954.00
2024-01-25T21:36:23.491Z,78947.88
2024-01-25T21:38:51.789Z,78941.75
2024-01-25T21:41:20.138Z,78943.78
2024-01-25T21:43:48.475Z,78943.78
2024-01-25T21:46:19.190Z,78947.88
2024-01-25T21:48:49.394Z,78947.88
2024-01-25T21:51:18.011Z,78937.66
2024-01-25T21:53:46.569Z,78937.66
2024-01-25T21:56:19.812Z,78933.59
2024-01-25T21:58:48.301Z,78937.66
2024-01-25T22:01:17.123Z,78937.66
2024-01-25T22:03:45.796Z,78941.75
2024-01-25T22:06:16.035Z,78937.66
2024-01-25T22:08:49.038Z,78939.72
2024-01-25T22:11:17.620Z,78941.75
2024-01-25T22:13:46.125Z,78949.91
2024-01-25T22:16:14.883Z,78949.91
2024-01-25T22:18:43.291Z,78951.97
2024-01-25T22:21:11.619Z,78943.78
2024-01-25T22:23:41.382Z,78943.78
2024-01-25T22:26:13.493Z,78943.78
2024-01-25T22:28:42.072Z,78949.91
2024-01-25T22:31:10.664Z,78947.88
2024-01-25T22:33:39.292Z,78951.97
2024-01-25T22:36:08.411Z,78970.34
2024-01-25T22:38:36.754Z,78968.28
2024-01-25T22:41:06.778Z,78962.16
2024-01-25T22:43:36.036Z,78962.16
2024-01-25T22:46:05.945Z,78968.28
2024-01-25T22:48:34.409Z,78966.25
2024-01-25T22:51:04.731Z,78962.16
2024-01-25T22:53:33.959Z,78962.16
2024-01-25T22:56:03.218Z,78972.38
2024-01-25T22:58:33.443Z,78970.34
2024-01-25T23:01:02.518Z,78974.41
2024-01-25T23:03:34.641Z,78962.16
2024-01-25T23:06:03.089Z,78962.16
2024-01-25T23:08:31.619Z,78966.25
2024-01-25T23:11:00.528Z,78962.16
2024-01-25T23:13:29.727Z,78951.97
2024-01-25T23:15:59.599Z,78951.97
2024-01-25T23:18:30.474Z,78945.84
2024-01-25T23:20:59.239Z,78945.84
2024-01-25T23:23:27.619Z,78947.88
2024-01-25T23:25:56.005Z,78949.91
2024-01-25T23:28:24.477Z,78949.91
2024-01-25T23:30:52.914Z,78943.78
2024-01-25T23:33:24.148Z,78951.97
2024-01-25T23:35:52.590Z,78945.84
2024-01-25T23:38:22.252Z,78941.75
2024-01-25T23:40:50.494Z,78947.88
2024-01-25T23:43:19.150Z,78949.91
2024-01-25T23:45:49.377Z,78949.91
2024-01-25T23:48:18.153Z,78960.13
2024-01-25T23:50:48.704Z,78958.09
2024-01-25T23:53:19.807Z,78970.34
2024-01-25T23:55:48.681Z,78968.28
2024-01-25T23:58:18.064Z,78964.22
